sensor_id;sensor_type;location;lat;lon;timestamp;temperature;humidity
4697;DHT22;2362;50.780;0.292;2023-08-31T00:00:09;13.60;99.90
4697;DHT22;2362;50.780;0.292;2023-08-31T00:02:35;13.60;99.90
4697;DHT22;2362;50.780;0.292;2023-08-31T00:05:01;13.50;99.90
4697;DHT22;2362;50.780;0.292;2023-08-31T00:07:29;13.40;99.90
4697;DHT22;2362;50.780;0.292;2023-08-31T00:09:54;13.30;99.90
4697;DHT22;2362;50.780;0.292;2023-08-31T00:12:20;13.30;99.90
4697;DHT22;2362;50.780;0.292;2023-08-31T00:14:49;13.20;99.90
4697;DHT22;2362;50.780;0.292;2023-08-31T00:17:15;13.20;99.90
4697;DHT22;2362;50.780;0.292;2023-08-31T00:19:40;13.20;99.90
4697;DHT22;2362;50.780;0.292;2023-08-31T00:22:06;13.20;99.90
4697;DHT22;2362;50.780;0.292;2023-08-31T00:24:31;13.10;99.90
4697;DHT22;2362;50.780;0.292;2023-08-31T00:27:01;13.10;99.90
4697;DHT22;2362;50.780;0.292;2023-08-31T00:29:27;13.10;99.90
4697;DHT22;2362;50.780;0.292;2023-08-31T00:31:52;13.00;99.90
4697;DHT22;2362;50.780;0.292;2023-08-31T00:34:19;13.00;99.90
4697;DHT22;2362;50.780;0.292;2023-08-31T00:36:46;12.90;99.90
4697;DHT22;2362;50.780;0.292;2023-08-31T00:39:11;12.90;99.90
4697;DHT22;2362;50.780;0.292;2023-08-31T00:41:37;12.90;99.90
4697;DHT22;2362;50.780;0.292;2023-08-31T00:44:03;13.00;99.90
4697;DHT22;2362;50.780;0.292;2023-08-31T00:46:34;13.00;99.90
4697;DHT22;2362;50.780;0.292;2023-08-31T00:49:00;13.00;99.90
4697;DHT22;2362;50.780;0.292;2023-08-31T00:51:26;13.10;99.90
4697;DHT22;2362;50.780;0.292;2023-08-31T00:53:52;13.00;99.90
4697;DHT22;2362;50.780;0.292;2023-08-31T00:56:21;13.00;99.90
4697;DHT22;2362;50.780;0.292;2023-08-31T00:58:47;13.00;99.90
4697;DHT22;2362;50.780;0.292;2023-08-31T01:01:22;13.00;99.90
4697;DHT22;2362;50.780;0.292;2023-08-31T01:04:07;13.00;99.90
4697;DHT22;2362;50.780;0.292;2023-08-31T01:14:17;12.90;99.90
4697;DHT22;2362;50.780;0.292;2023-08-31T01:16:47;13.00;99.90
4697;DHT22;2362;50.780;0.292;2023-08-31T01:19:41;13.00;99.90
4697;DHT22;2362;50.780;0.292;2023-08-31T01:22:13;13.00;99.90
4697;DHT22;2362;50.780;0.292;2023-08-31T01:24:41;13.00;99.90
4697;DHT22;2362;50.780;0.292;2023-08-31T01:27:06;13.00;99.90
4697;DHT22;2362;50.780;0.292;2023-08-31T01:29:32;13.00;99.90
4697;DHT22;2362;50.780;0.292;2023-08-31T01:31:58;13.00;99.90
4697;DHT22;2362;50.780;0.292;2023-08-31T01:34:24;13.00;99.90
4697;DHT22;2362;50.780;0.292;2023-08-31T01:36:53;13.10;99.90
4697;DHT22;2362;50.780;0.292;2023-08-31T01:39:39;13.10;99.90
4697;DHT22;2362;50.780;0.292;2023-08-31T01:42:07;13.10;99.90
4697;DHT22;2362;50.780;0.292;2023-08-31T01:44:35;13.10;99.90
4697;DHT22;2362;50.780;0.292;2023-08-31T01:47:05;13.10;99.90
4697;DHT22;2362;50.780;0.292;2023-08-31T01:49:38;13.00;99.90
4697;DHT22;2362;50.780;0.292;2023-08-31T01:52:05;13.00;99.90
4697;DHT22;2362;50.780;0.292;2023-08-31T01:54:31;13.00;99.90
4697;DHT22;2362;50.780;0.292;2023-08-31T01:56:58;13.10;99.90
4697;DHT22;2362;50.780;0.292;2023-08-31T01:59:23;13.10;99.90
4697;DHT22;2362;50.780;0.292;2023-08-31T02:01:49;13.10;99.90
4697;DHT22;2362;50.780;0.292;2023-08-31T02:04:15;13.20;99.90
4697;DHT22;2362;50.780;0.292;2023-08-31T02:06:40;13.20;99.90
4697;DHT22;2362;50.780;0.292;2023-08-31T02:09:06;13.20;99.90
4697;DHT22;2362;50.780;0.292;2023-08-31T02:11:32;13.20;99.90
4697;DHT22;2362;50.780;0.292;2023-08-31T02:14:01;13.20;99.90
4697;DHT22;2362;50.780;0.292;2023-08-31T02:16:28;13.20;99.90
4697;DHT22;2362;50.780;0.292;2023-08-31T02:18:53;13.30;99.90
4697;DHT22;2362;50.780;0.292;2023-08-31T02:21:19;13.30;99.90
4697;DHT22;2362;50.780;0.292;2023-08-31T02:23:45;13.20;99.90
4697;DHT22;2362;50.780;0.292;2023-08-31T02:26:11;13.30;99.90
4697;DHT22;2362;50.780;0.292;2023-08-31T02:28:37;13.30;99.90
4697;DHT22;2362;50.780;0.292;2023-08-31T02:31:03;13.30;99.90
4697;DHT22;2362;50.780;0.292;2023-08-31T02:33:28;13.20;99.90
4697;DHT22;2362;50.780;0.292;2023-08-31T02:35:55;13.20;99.90
4697;DHT22;2362;50.780;0.292;2023-08-31T02:38:21;13.20;99.90
4697;DHT22;2362;50.780;0.292;2023-08-31T02:40:47;13.10;99.90
4697;DHT22;2362;50.780;0.292;2023-08-31T02:43:14;13.10;99.90
4697;DHT22;2362;50.780;0.292;2023-08-31T02:45:39;13.10;99.90
4697;DHT22;2362;50.780;0.292;2023-08-31T02:48:09;13.00;99.90
4697;DHT22;2362;50.780;0.292;2023-08-31T02:50:35;13.00;99.90
4697;DHT22;2362;50.780;0.292;2023-08-31T02:53:01;12.90;99.90
4697;DHT22;2362;50.780;0.292;2023-08-31T02:55:26;12.90;99.90
4697;DHT22;2362;50.780;0.292;2023-08-31T02:57:53;12.90;99.90
4697;DHT22;2362;50.780;0.292;2023-08-31T03:00:19;12.80;99.90
4697;DHT22;2362;50.780;0.292;2023-08-31T03:02:50;12.80;99.90
4697;DHT22;2362;50.780;0.292;2023-08-31T03:05:19;12.80;99.90
4697;DHT22;2362;50.780;0.292;2023-08-31T03:07:46;12.70;99.90
4697;DHT22;2362;50.780;0.292;2023-08-31T03:10:12;12.60;99.90
4697;DHT22;2362;50.780;0.292;2023-08-31T03:12:38;12.60;99.90
4697;DHT22;2362;50.780;0.292;2023-08-31T03:15:05;12.60;99.90
4697;DHT22;2362;50.780;0.292;2023-08-31T03:17:31;12.70;99.90
4697;DHT22;2362;50.780;0.292;2023-08-31T03:19:57;12.70;99.90
4697;DHT22;2362;50.780;0.292;2023-08-31T03:22:23;12.70;99.90
4697;DHT22;2362;50.780;0.292;2023-08-31T03:24:48;12.70;99.90
4697;DHT22;2362;50.780;0.292;2023-08-31T03:27:14;12.70;99.90
4697;DHT22;2362;50.780;0.292;2023-08-31T03:29:41;12.70;99.90
4697;DHT22;2362;50.780;0.292;2023-08-31T03:32:07;12.80;99.90
4697;DHT22;2362;50.780;0.292;2023-08-31T03:34:32;12.80;99.90
4697;DHT22;2362;50.780;0.292;2023-08-31T03:36:58;12.80;99.90
4697;DHT22;2362;50.780;0.292;2023-08-31T03:39:25;12.80;99.90
4697;DHT22;2362;50.780;0.292;2023-08-31T03:41:51;12.80;99.90
4697;DHT22;2362;50.780;0.292;2023-08-31T03:44:16;12.90;99.90
4697;DHT22;2362;50.780;0.292;2023-08-31T03:46:43;12.90;99.90
4697;DHT22;2362;50.780;0.292;2023-08-31T03:49:09;12.90;99.90
4697;DHT22;2362;50.780;0.292;2023-08-31T03:51:35;12.90;99.90
4697;DHT22;2362;50.780;0.292;2023-08-31T03:54:00;12.90;99.90
4697;DHT22;2362;50.780;0.292;2023-08-31T03:56:26;12.90;99.90
4697;DHT22;2362;50.780;0.292;2023-08-31T03:58:52;12.90;99.90
4697;DHT22;2362;50.780;0.292;2023-08-31T04:01:18;13.00;99.90
4697;DHT22;2362;50.780;0.292;2023-08-31T04:03:44;13.00;99.90
4697;DHT22;2362;50.780;0.292;2023-08-31T04:06:10;12.90;99.90
4697;DHT22;2362;50.780;0.292;2023-08-31T04:08:35;13.00;99.90
4697;DHT22;2362;50.780;0.292;2023-08-31T04:11:01;13.00;99.90
4697;DHT22;2362;50.780;0.292;2023-08-31T04:13:27;13.00;99.90
4697;DHT22;2362;50.780;0.292;2023-08-31T04:15:52;13.00;99.90
4697;DHT22;2362;50.780;0.292;2023-08-31T04:18:19;12.90;99.90
4697;DHT22;2362;50.780;0.292;2023-08-31T04:20:52;12.90;99.90
4697;DHT22;2362;50.780;0.292;2023-08-31T04:23:19;13.00;99.90
4697;DHT22;2362;50.780;0.292;2023-08-31T04:25:45;13.00;99.90
4697;DHT22;2362;50.780;0.292;2023-08-31T04:28:11;12.90;99.90
4697;DHT22;2362;50.780;0.292;2023-08-31T04:30:37;13.00;99.90
4697;DHT22;2362;50.780;0.292;2023-08-31T04:33:04;13.00;99.90
4697;DHT22;2362;50.780;0.292;2023-08-31T04:35:30;13.00;99.90
4697;DHT22;2362;50.780;0.292;2023-08-31T04:37:57;12.90;99.90
4697;DHT22;2362;50.780;0.292;2023-08-31T04:40:23;12.90;99.90
4697;DHT22;2362;50.780;0.292;2023-08-31T04:42:50;13.00;99.90
4697;DHT22;2362;50.780;0.292;2023-08-31T04:45:16;12.90;99.90
4697;DHT22;2362;50.780;0.292;2023-08-31T04:47:42;12.80;99.90
4697;DHT22;2362;50.780;0.292;2023-08-31T04:50:08;12.80;99.90
4697;DHT22;2362;50.780;0.292;2023-08-31T04:52:34;12.70;99.90
4697;DHT22;2362;50.780;0.292;2023-08-31T04:55:05;12.70;99.90
4697;DHT22;2362;50.780;0.292;2023-08-31T04:57:32;12.70;99.90
4697;DHT22;2362;50.780;0.292;2023-08-31T04:59:58;12.60;99.90
4697;DHT22;2362;50.780;0.292;2023-08-31T05:02:24;12.70;99.90
4697;DHT22;2362;50.780;0.292;2023-08-31T05:04:49;12.60;99.90
4697;DHT22;2362;50.780;0.292;2023-08-31T05:07:15;12.60;99.90
4697;DHT22;2362;50.780;0.292;2023-08-31T05:09:40;12.60;99.90
4697;DHT22;2362;50.780;0.292;2023-08-31T05:12:06;12.70;99.90
4697;DHT22;2362;50.780;0.292;2023-08-31T05:14:33;12.70;99.90
4697;DHT22;2362;50.780;0.292;2023-08-31T05:17:03;12.60;99.90
4697;DHT22;2362;50.780;0.292;2023-08-31T05:19:29;12.70;99.90
4697;DHT22;2362;50.780;0.292;2023-08-31T05:21:54;12.80;99.90
4697;DHT22;2362;50.780;0.292;2023-08-31T05:24:20;12.90;99.90
4697;DHT22;2362;50.780;0.292;2023-08-31T05:26:45;12.80;99.90
4697;DHT22;2362;50.780;0.292;2023-08-31T05:29:11;12.80;99.90
4697;DHT22;2362;50.780;0.292;2023-08-31T05:31:37;12.90;99.90
4697;DHT22;2362;50.780;0.292;2023-08-31T05:34:02;12.90;99.90
4697;DHT22;2362;50.780;0.292;2023-08-31T05:36:28;12.90;99.90
4697;DHT22;2362;50.780;0.292;2023-08-31T05:38:54;12.90;99.90
4697;DHT22;2362;50.780;0.292;2023-08-31T05:41:19;13.00;99.90
4697;DHT22;2362;50.780;0.292;2023-08-31T05:43:46;13.00;99.90
4697;DHT22;2362;50.780;0.292;2023-08-31T05:46:11;13.00;99.90
4697;DHT22;2362;50.780;0.292;2023-08-31T05:48:37;13.10;99.90
4697;DHT22;2362;50.780;0.292;2023-08-31T05:51:03;13.10;99.90
4697;DHT22;2362;50.780;0.292;2023-08-31T05:53:32;13.20;99.90
4697;DHT22;2362;50.780;0.292;2023-08-31T05:55:58;13.20;99.90
4697;DHT22;2362;50.780;0.292;2023-08-31T05:58:34;13.20;99.90
4697;DHT22;2362;50.780;0.292;2023-08-31T06:01:01;13.20;99.90
4697;DHT22;2362;50.780;0.292;2023-08-31T06:03:27;13.20;99.90
4697;DHT22;2362;50.780;0.292;2023-08-31T06:05:55;13.20;99.90
4697;DHT22;2362;50.780;0.292;2023-08-31T06:08:22;13.30;99.90
4697;DHT22;2362;50.780;0.292;2023-08-31T06:10:48;13.30;99.90
4697;DHT22;2362;50.780;0.292;2023-08-31T06:13:13;13.30;99.90
4697;DHT22;2362;50.780;0.292;2023-08-31T06:15:39;13.40;99.90
4697;DHT22;2362;50.780;0.292;2023-08-31T06:18:05;13.50;99.90
4697;DHT22;2362;50.780;0.292;2023-08-31T06:20:31;13.60;99.90
4697;DHT22;2362;50.780;0.292;2023-08-31T06:22:57;13.70;99.90
4697;DHT22;2362;50.780;0.292;2023-08-31T06:25:23;13.80;99.90
4697;DHT22;2362;50.780;0.292;2023-08-31T06:27:49;13.90;99.90
4697;DHT22;2362;50.780;0.292;2023-08-31T06:30:14;14.00;99.90
4697;DHT22;2362;50.780;0.292;2023-08-31T06:32:44;14.10;99.90
4697;DHT22;2362;50.780;0.292;2023-08-31T06:35:11;14.20;99.90
4697;DHT22;2362;50.780;0.292;2023-08-31T06:37:46;14.20;99.90
4697;DHT22;2362;50.780;0.292;2023-08-31T06:40:12;14.20;99.90
4697;DHT22;2362;50.780;0.292;2023-08-31T06:42:38;14.30;99.90
4697;DHT22;2362;50.780;0.292;2023-08-31T06:45:06;14.30;99.90
4697;DHT22;2362;50.780;0.292;2023-08-31T06:47:32;14.30;99.90
4697;DHT22;2362;50.780;0.292;2023-08-31T06:49:58;14.40;99.90
4697;DHT22;2362;50.780;0.292;2023-08-31T06:52:27;14.50;99.90
4697;DHT22;2362;50.780;0.292;2023-08-31T06:54:53;14.60;99.90
4697;DHT22;2362;50.780;0.292;2023-08-31T06:57:23;14.60;99.90
4697;DHT22;2362;50.780;0.292;2023-08-31T06:59:49;14.70;99.90
4697;DHT22;2362;50.780;0.292;2023-08-31T07:02:15;14.80;99.90
4697;DHT22;2362;50.780;0.292;2023-08-31T07:04:40;14.90;99.90
4697;DHT22;2362;50.780;0.292;2023-08-31T07:07:06;15.00;99.90
4697;DHT22;2362;50.780;0.292;2023-08-31T07:09:34;15.10;99.90
4697;DHT22;2362;50.780;0.292;2023-08-31T07:12:00;15.10;99.90
4697;DHT22;2362;50.780;0.292;2023-08-31T07:14:27;15.00;99.90
4697;DHT22;2362;50.780;0.292;2023-08-31T07:16:52;15.10;99.90
4697;DHT22;2362;50.780;0.292;2023-08-31T07:19:18;15.10;99.90
4697;DHT22;2362;50.780;0.292;2023-08-31T07:21:44;15.20;99.90
4697;DHT22;2362;50.780;0.292;2023-08-31T07:24:10;15.20;99.90
4697;DHT22;2362;50.780;0.292;2023-08-31T07:26:35;15.20;99.90
4697;DHT22;2362;50.780;0.292;2023-08-31T07:29:02;15.20;99.90
4697;DHT22;2362;50.780;0.292;2023-08-31T07:31:30;15.10;99.90
4697;DHT22;2362;50.780;0.292;2023-08-31T07:33:57;15.10;99.90
4697;DHT22;2362;50.780;0.292;2023-08-31T07:36:24;15.20;99.90
4697;DHT22;2362;50.780;0.292;2023-08-31T07:38:49;15.30;99.90
4697;DHT22;2362;50.780;0.292;2023-08-31T07:41:15;15.40;99.90
4697;DHT22;2362;50.780;0.292;2023-08-31T07:43:41;15.50;99.90
4697;DHT22;2362;50.780;0.292;2023-08-31T07:46:06;15.50;99.90
4697;DHT22;2362;50.780;0.292;2023-08-31T07:48:32;15.60;99.90
4697;DHT22;2362;50.780;0.292;2023-08-31T07:50:58;15.70;99.90
4697;DHT22;2362;50.780;0.292;2023-08-31T07:53:23;15.80;99.90
4697;DHT22;2362;50.780;0.292;2023-08-31T07:55:53;15.90;99.90
4697;DHT22;2362;50.780;0.292;2023-08-31T07:58:24;16.00;99.90
4697;DHT22;2362;50.780;0.292;2023-08-31T08:00:52;16.10;99.90
4697;DHT22;2362;50.780;0.292;2023-08-31T08:03:19;16.10;99.90
4697;DHT22;2362;50.780;0.292;2023-08-31T08:05:44;16.20;99.90
4697;DHT22;2362;50.780;0.292;2023-08-31T08:08:11;16.20;99.90
4697;DHT22;2362;50.780;0.292;2023-08-31T08:10:36;16.30;99.90
4697;DHT22;2362;50.780;0.292;2023-08-31T08:13:02;16.50;99.90
4697;DHT22;2362;50.780;0.292;2023-08-31T08:15:29;16.70;99.90
4697;DHT22;2362;50.780;0.292;2023-08-31T08:17:55;16.90;99.90
4697;DHT22;2362;50.780;0.292;2023-08-31T08:20:23;17.10;99.90
4697;DHT22;2362;50.780;0.292;2023-08-31T08:22:49;17.40;99.90
4697;DHT22;2362;50.780;0.292;2023-08-31T08:25:21;17.70;99.90
4697;DHT22;2362;50.780;0.292;2023-08-31T08:27:47;17.80;99.90
4697;DHT22;2362;50.780;0.292;2023-08-31T08:30:14;17.80;99.90
4697;DHT22;2362;50.780;0.292;2023-08-31T08:32:41;17.90;99.90
4697;DHT22;2362;50.780;0.292;2023-08-31T08:35:07;17.90;99.90
4697;DHT22;2362;50.780;0.292;2023-08-31T08:37:33;17.90;99.90
4697;DHT22;2362;50.780;0.292;2023-08-31T08:39:59;17.90;99.90
4697;DHT22;2362;50.780;0.292;2023-08-31T08:42:25;17.90;99.90
4697;DHT22;2362;50.780;0.292;2023-08-31T08:44:51;18.10;99.90
4697;DHT22;2362;50.780;0.292;2023-08-31T08:47:20;18.30;99.90
4697;DHT22;2362;50.780;0.292;2023-08-31T08:49:47;18.50;99.90
4697;DHT22;2362;50.780;0.292;2023-08-31T08:52:14;18.70;99.90
4697;DHT22;2362;50.780;0.292;2023-08-31T08:54:40;18.90;99.90
4697;DHT22;2362;50.780;0.292;2023-08-31T08:57:05;19.00;99.90
4697;DHT22;2362;50.780;0.292;2023-08-31T08:59:32;18.90;99.90
4697;DHT22;2362;50.780;0.292;2023-08-31T09:01:57;18.90;99.90
4697;DHT22;2362;50.780;0.292;2023-08-31T09:04:23;18.90;99.90
4697;DHT22;2362;50.780;0.292;2023-08-31T09:06:52;18.80;99.90
4697;DHT22;2362;50.780;0.292;2023-08-31T09:09:17;18.70;99.90
4697;DHT22;2362;50.780;0.292;2023-08-31T09:11:45;18.70;99.90
4697;DHT22;2362;50.780;0.292;2023-08-31T09:14:18;18.50;99.90
4697;DHT22;2362;50.780;0.292;2023-08-31T09:16:49;18.50;99.90
4697;DHT22;2362;50.780;0.292;2023-08-31T09:19:22;18.20;99.90
4697;DHT22;2362;50.780;0.292;2023-08-31T09:21:51;18.10;99.90
4697;DHT22;2362;50.780;0.292;2023-08-31T09:24:18;17.90;99.90
4697;DHT22;2362;50.780;0.292;2023-08-31T09:26:45;17.80;99.90
4697;DHT22;2362;50.780;0.292;2023-08-31T09:29:12;17.70;99.90
4697;DHT22;2362;50.780;0.292;2023-08-31T09:31:38;17.40;99.90
4697;DHT22;2362;50.780;0.292;2023-08-31T09:34:06;17.30;99.90
4697;DHT22;2362;50.780;0.292;2023-08-31T09:36:32;17.10;99.90
4697;DHT22;2362;50.780;0.292;2023-08-31T09:38:59;17.00;99.90
4697;DHT22;2362;50.780;0.292;2023-08-31T09:41:25;16.90;99.90
4697;DHT22;2362;50.780;0.292;2023-08-31T09:43:50;16.60;99.90
4697;DHT22;2362;50.780;0.292;2023-08-31T09:46:16;16.50;99.90
4697;DHT22;2362;50.780;0.292;2023-08-31T09:48:42;16.40;99.90
4697;DHT22;2362;50.780;0.292;2023-08-31T09:51:10;16.50;99.90
4697;DHT22;2362;50.780;0.292;2023-08-31T09:53:37;16.50;99.90
4697;DHT22;2362;50.780;0.292;2023-08-31T09:56:05;16.40;99.90
4697;DHT22;2362;50.780;0.292;2023-08-31T09:58:32;16.60;99.90
4697;DHT22;2362;50.780;0.292;2023-08-31T10:00:59;16.70;99.90
4697;DHT22;2362;50.780;0.292;2023-08-31T10:03:26;16.70;99.90
4697;DHT22;2362;50.780;0.292;2023-08-31T10:05:53;16.80;99.90
4697;DHT22;2362;50.780;0.292;2023-08-31T10:08:20;16.90;99.90
4697;DHT22;2362;50.780;0.292;2023-08-31T10:10:46;16.90;99.90
4697;DHT22;2362;50.780;0.292;2023-08-31T10:13:12;16.90;99.90
4697;DHT22;2362;50.780;0.292;2023-08-31T10:15:39;16.90;99.90
4697;DHT22;2362;50.780;0.292;2023-08-31T10:18:06;17.00;99.90
4697;DHT22;2362;50.780;0.292;2023-08-31T10:20:33;16.90;99.90
4697;DHT22;2362;50.780;0.292;2023-08-31T10:23:05;16.90;99.90
4697;DHT22;2362;50.780;0.292;2023-08-31T10:28:18;16.90;99.90
4697;DHT22;2362;50.780;0.292;2023-08-31T10:33:27;16.90;99.90
4697;DHT22;2362;50.780;0.292;2023-08-31T10:35:55;16.90;99.90
4697;DHT22;2362;50.780;0.292;2023-08-31T10:38:25;16.90;99.90
4697;DHT22;2362;50.780;0.292;2023-08-31T10:41:01;17.00;99.90
4697;DHT22;2362;50.780;0.292;2023-08-31T10:43:43;17.00;99.90
4697;DHT22;2362;50.780;0.292;2023-08-31T10:46:36;17.00;99.90
4697;DHT22;2362;50.780;0.292;2023-08-31T10:51:48;17.00;99.90
4697;DHT22;2362;50.780;0.292;2023-08-31T10:59:43;17.10;99.90
4697;DHT22;2362;50.780;0.292;2023-08-31T11:02:09;17.10;99.90
4697;DHT22;2362;50.780;0.292;2023-08-31T11:04:55;17.10;99.90
4697;DHT22;2362;50.780;0.292;2023-08-31T11:07:25;17.10;99.90
4697;DHT22;2362;50.780;0.292;2023-08-31T11:09:51;17.10;99.90
4697;DHT22;2362;50.780;0.292;2023-08-31T11:12:17;16.90;99.90
4697;DHT22;2362;50.780;0.292;2023-08-31T11:14:43;16.80;99.90
4697;DHT22;2362;50.780;0.292;2023-08-31T11:17:09;16.70;99.90
4697;DHT22;2362;50.780;0.292;2023-08-31T11:19:37;16.60;99.90
4697;DHT22;2362;50.780;0.292;2023-08-31T11:22:03;16.60;99.90
4697;DHT22;2362;50.780;0.292;2023-08-31T11:24:30;16.60;99.90
4697;DHT22;2362;50.780;0.292;2023-08-31T11:26:56;16.40;99.90
4697;DHT22;2362;50.780;0.292;2023-08-31T11:29:22;16.30;99.90
4697;DHT22;2362;50.780;0.292;2023-08-31T11:31:48;16.30;99.90
4697;DHT22;2362;50.780;0.292;2023-08-31T11:34:15;16.20;99.90
4697;DHT22;2362;50.780;0.292;2023-08-31T11:36:46;16.20;99.90
4697;DHT22;2362;50.780;0.292;2023-08-31T11:39:12;16.20;99.90
4697;DHT22;2362;50.780;0.292;2023-08-31T11:41:40;16.20;99.90
4697;DHT22;2362;50.780;0.292;2023-08-31T11:44:13;16.20;99.90
4697;DHT22;2362;50.780;0.292;2023-08-31T11:46:42;16.30;99.90
4697;DHT22;2362;50.780;0.292;2023-08-31T11:49:08;16.30;99.90
4697;DHT22;2362;50.780;0.292;2023-08-31T11:51:34;16.10;99.90
4697;DHT22;2362;50.780;0.292;2023-08-31T11:54:01;16.00;99.90
4697;DHT22;2362;50.780;0.292;2023-08-31T11:56:38;16.00;99.90
4697;DHT22;2362;50.780;0.292;2023-08-31T11:59:10;16.00;99.90
4697;DHT22;2362;50.780;0.292;2023-08-31T12:01:45;16.00;99.90
4697;DHT22;2362;50.780;0.292;2023-08-31T12:04:20;16.10;99.90
4697;DHT22;2362;50.780;0.292;2023-08-31T12:06:50;16.00;99.90
4697;DHT22;2362;50.780;0.292;2023-08-31T12:09:18;15.90;99.90
4697;DHT22;2362;50.780;0.292;2023-08-31T12:11:50;16.00;99.90
4697;DHT22;2362;50.780;0.292;2023-08-31T12:14:23;15.90;99.90
4697;DHT22;2362;50.780;0.292;2023-08-31T12:16:49;15.90;99.90
4697;DHT22;2362;50.780;0.292;2023-08-31T12:19:15;16.00;99.90
4697;DHT22;2362;50.780;0.292;2023-08-31T12:21:43;16.00;99.90
4697;DHT22;2362;50.780;0.292;2023-08-31T12:24:12;16.10;99.90
4697;DHT22;2362;50.780;0.292;2023-08-31T12:26:38;16.30;99.90
4697;DHT22;2362;50.780;0.292;2023-08-31T12:29:04;16.40;99.90
4697;DHT22;2362;50.780;0.292;2023-08-31T12:31:30;16.40;99.90
4697;DHT22;2362;50.780;0.292;2023-08-31T12:33:56;16.60;99.90
4697;DHT22;2362;50.780;0.292;2023-08-31T12:36:22;16.60;99.90
4697;DHT22;2362;50.780;0.292;2023-08-31T12:38:47;16.70;99.90
4697;DHT22;2362;50.780;0.292;2023-08-31T12:41:13;16.80;99.90
4697;DHT22;2362;50.780;0.292;2023-08-31T12:43:39;16.60;99.90
4697;DHT22;2362;50.780;0.292;2023-08-31T12:46:04;16.50;99.90
4697;DHT22;2362;50.780;0.292;2023-08-31T12:48:35;16.40;99.90
4697;DHT22;2362;50.780;0.292;2023-08-31T12:51:00;16.00;99.90
4697;DHT22;2362;50.780;0.292;2023-08-31T12:53:26;15.90;99.90
4697;DHT22;2362;50.780;0.292;2023-08-31T12:55:53;15.90;99.90
4697;DHT22;2362;50.780;0.292;2023-08-31T12:58:19;16.10;99.90
4697;DHT22;2362;50.780;0.292;2023-08-31T13:00:46;16.10;99.90
4697;DHT22;2362;50.780;0.292;2023-08-31T13:03:13;16.20;99.90
4697;DHT22;2362;50.780;0.292;2023-08-31T13:05:39;16.40;99.90
4697;DHT22;2362;50.780;0.292;2023-08-31T13:08:06;16.40;99.90
4697;DHT22;2362;50.780;0.292;2023-08-31T13:10:32;16.40;99.90
4697;DHT22;2362;50.780;0.292;2023-08-31T13:12:58;16.40;99.90
4697;DHT22;2362;50.780;0.292;2023-08-31T13:15:24;16.20;99.90
4697;DHT22;2362;50.780;0.292;2023-08-31T13:17:49;16.30;99.90
4697;DHT22;2362;50.780;0.292;2023-08-31T13:20:15;16.10;99.90
4697;DHT22;2362;50.780;0.292;2023-08-31T13:22:41;16.20;99.90
4697;DHT22;2362;50.780;0.292;2023-08-31T13:25:06;16.10;99.90
4697;DHT22;2362;50.780;0.292;2023-08-31T13:27:32;16.10;99.90
4697;DHT22;2362;50.780;0.292;2023-08-31T13:30:00;16.10;99.90
4697;DHT22;2362;50.780;0.292;2023-08-31T13:32:26;16.20;99.90
4697;DHT22;2362;50.780;0.292;2023-08-31T13:34:52;16.40;99.90
4697;DHT22;2362;50.780;0.292;2023-08-31T13:37:19;16.30;99.90
4697;DHT22;2362;50.780;0.292;2023-08-31T13:39:44;16.10;99.90
4697;DHT22;2362;50.780;0.292;2023-08-31T13:42:10;15.80;99.90
4697;DHT22;2362;50.780;0.292;2023-08-31T13:44:36;15.80;99.90
4697;DHT22;2362;50.780;0.292;2023-08-31T13:47:02;15.70;99.90
4697;DHT22;2362;50.780;0.292;2023-08-31T13:49:29;15.80;99.90
4697;DHT22;2362;50.780;0.292;2023-08-31T13:51:56;15.70;99.90
4697;DHT22;2362;50.780;0.292;2023-08-31T13:54:21;15.70;99.90
4697;DHT22;2362;50.780;0.292;2023-08-31T13:56:47;15.70;99.90
4697;DHT22;2362;50.780;0.292;2023-08-31T13:59:15;15.80;99.90
4697;DHT22;2362;50.780;0.292;2023-08-31T14:01:41;15.60;99.90
4697;DHT22;2362;50.780;0.292;2023-08-31T14:04:07;15.50;99.90
4697;DHT22;2362;50.780;0.292;2023-08-31T14:06:32;15.30;99.90
4697;DHT22;2362;50.780;0.292;2023-08-31T14:08:58;15.10;99.90
4697;DHT22;2362;50.780;0.292;2023-08-31T14:11:23;15.00;99.90
4697;DHT22;2362;50.780;0.292;2023-08-31T14:13:50;15.00;99.90
4697;DHT22;2362;50.780;0.292;2023-08-31T14:16:18;14.90;99.90
4697;DHT22;2362;50.780;0.292;2023-08-31T14:18:43;14.90;99.90
4697;DHT22;2362;50.780;0.292;2023-08-31T14:21:15;14.90;99.90
4697;DHT22;2362;50.780;0.292;2023-08-31T14:23:41;14.90;99.90
4697;DHT22;2362;50.780;0.292;2023-08-31T14:26:06;14.90;99.90
4697;DHT22;2362;50.780;0.292;2023-08-31T14:28:35;14.90;99.90
4697;DHT22;2362;50.780;0.292;2023-08-31T14:31:04;14.90;99.90
4697;DHT22;2362;50.780;0.292;2023-08-31T14:33:30;15.00;99.90
4697;DHT22;2362;50.780;0.292;2023-08-31T14:35:56;15.10;99.90
4697;DHT22;2362;50.780;0.292;2023-08-31T14:38:21;15.10;99.90
4697;DHT22;2362;50.780;0.292;2023-08-31T14:40:48;15.00;99.90
4697;DHT22;2362;50.780;0.292;2023-08-31T14:43:13;15.00;99.90
4697;DHT22;2362;50.780;0.292;2023-08-31T14:45:39;14.90;99.90
4697;DHT22;2362;50.780;0.292;2023-08-31T14:48:05;15.00;99.90
4697;DHT22;2362;50.780;0.292;2023-08-31T14:50:30;15.00;99.90
4697;DHT22;2362;50.780;0.292;2023-08-31T14:52:56;14.90;99.90
4697;DHT22;2362;50.780;0.292;2023-08-31T14:55:22;15.00;99.90
4697;DHT22;2362;50.780;0.292;2023-08-31T14:57:47;14.90;99.90
4697;DHT22;2362;50.780;0.292;2023-08-31T15:00:13;14.90;99.90
4697;DHT22;2362;50.780;0.292;2023-08-31T15:02:40;14.90;99.90
4697;DHT22;2362;50.780;0.292;2023-08-31T15:05:05;14.90;99.90
4697;DHT22;2362;50.780;0.292;2023-08-31T15:07:31;14.90;99.90
4697;DHT22;2362;50.780;0.292;2023-08-31T15:09:57;14.90;99.90
4697;DHT22;2362;50.780;0.292;2023-08-31T15:12:22;14.90;99.90
4697;DHT22;2362;50.780;0.292;2023-08-31T15:14:48;14.90;99.90
4697;DHT22;2362;50.780;0.292;2023-08-31T15:17:14;14.90;99.90
4697;DHT22;2362;50.780;0.292;2023-08-31T15:19:39;14.90;99.90
4697;DHT22;2362;50.780;0.292;2023-08-31T15:22:05;14.80;99.90
4697;DHT22;2362;50.780;0.292;2023-08-31T15:24:30;14.80;99.90
4697;DHT22;2362;50.780;0.292;2023-08-31T15:26:58;14.80;99.90
4697;DHT22;2362;50.780;0.292;2023-08-31T15:29:24;14.80;99.90
4697;DHT22;2362;50.780;0.292;2023-08-31T15:31:50;14.80;99.90
4697;DHT22;2362;50.780;0.292;2023-08-31T15:34:16;14.90;99.90
4697;DHT22;2362;50.780;0.292;2023-08-31T15:36:41;14.80;99.90
4697;DHT22;2362;50.780;0.292;2023-08-31T15:39:07;14.80;99.90
4697;DHT22;2362;50.780;0.292;2023-08-31T15:41:33;14.90;99.90
4697;DHT22;2362;50.780;0.292;2023-08-31T15:44:02;14.90;99.90
4697;DHT22;2362;50.780;0.292;2023-08-31T15:46:29;14.90;99.90
4697;DHT22;2362;50.780;0.292;2023-08-31T15:48:55;15.00;99.90
4697;DHT22;2362;50.780;0.292;2023-08-31T15:51:20;15.00;99.90
4697;DHT22;2362;50.780;0.292;2023-08-31T15:53:46;15.00;99.90
4697;DHT22;2362;50.780;0.292;2023-08-31T15:56:15;15.10;99.90
4697;DHT22;2362;50.780;0.292;2023-08-31T15:58:41;15.10;99.90
4697;DHT22;2362;50.780;0.292;2023-08-31T16:01:12;15.20;99.90
4697;DHT22;2362;50.780;0.292;2023-08-31T16:03:38;15.20;99.90
4697;DHT22;2362;50.780;0.292;2023-08-31T16:06:09;15.20;99.90
4697;DHT22;2362;50.780;0.292;2023-08-31T16:08:38;15.20;99.90
4697;DHT22;2362;50.780;0.292;2023-08-31T16:11:04;15.10;99.90
4697;DHT22;2362;50.780;0.292;2023-08-31T16:13:30;15.10;99.90
4697;DHT22;2362;50.780;0.292;2023-08-31T16:15:56;15.10;99.90
4697;DHT22;2362;50.780;0.292;2023-08-31T16:18:22;15.10;99.90
4697;DHT22;2362;50.780;0.292;2023-08-31T16:20:48;15.10;99.90